sensor_id;sensor_type;location;lat;lon;timestamp;temperature;humidity
51383;DHT22;37475;43.358;1.248;2023-04-03T00:01:16;9.10;92.20
51383;DHT22;37475;43.358;1.248;2023-04-03T00:03:42;9.10;92.40
51383;DHT22;37475;43.358;1.248;2023-04-03T00:06:09;9.10;92.30
51383;DHT22;37475;43.358;1.248;2023-04-03T00:08:37;9.10;92.20
51383;DHT22;37475;43.358;1.248;2023-04-03T00:11:03;9.10;91.90
51383;DHT22;37475;43.358;1.248;2023-04-03T00:13:31;9.10;91.90
51383;DHT22;37475;43.358;1.248;2023-04-03T00:15:57;9.10;91.80
51383;DHT22;37475;43.358;1.248;2023-04-03T00:18:23;9.10;91.80
51383;DHT22;37475;43.358;1.248;2023-04-03T00:20:49;9.10;91.80
51383;DHT22;37475;43.358;1.248;2023-04-03T00:23:15;9.10;91.70
51383;DHT22;37475;43.358;1.248;2023-04-03T00:25:42;9.10;91.80
51383;DHT22;37475;43.358;1.248;2023-04-03T00:28:08;9.10;91.50
51383;DHT22;37475;43.358;1.248;2023-04-03T00:30:34;9.10;91.30
51383;DHT22;37475;43.358;1.248;2023-04-03T00:33:00;9.10;91.30
51383;DHT22;37475;43.358;1.248;2023-04-03T00:35:26;9.10;91.60
51383;DHT22;37475;43.358;1.248;2023-04-03T00:37:54;9.10;91.30
51383;DHT22;37475;43.358;1.248;2023-04-03T00:40:22;9.10;91.40
51383;DHT22;37475;43.358;1.248;2023-04-03T00:42:54;9.00;91.10
51383;DHT22;37475;43.358;1.248;2023-04-03T00:45:29;9.00;91.20
51383;DHT22;37475;43.358;1.248;2023-04-03T00:48:05;9.10;91.30
51383;DHT22;37475;43.358;1.248;2023-04-03T00:50:35;9.00;91.10
51383;DHT22;37475;43.358;1.248;2023-04-03T00:53:04;9.00;91.20
51383;DHT22;37475;43.358;1.248;2023-04-03T00:55:33;9.00;91.40
51383;DHT22;37475;43.358;1.248;2023-04-03T00:58:00;9.00;91.40
51383;DHT22;37475;43.358;1.248;2023-04-03T01:00:27;9.00;91.60
51383;DHT22;37475;43.358;1.248;2023-04-03T01:02:53;8.90;91.60
51383;DHT22;37475;43.358;1.248;2023-04-03T01:05:20;8.90;91.70
51383;DHT22;37475;43.358;1.248;2023-04-03T01:07:48;8.90;91.80
51383;DHT22;37475;43.358;1.248;2023-04-03T01:10:16;9.00;91.80
51383;DHT22;37475;43.358;1.248;2023-04-03T01:12:44;8.90;91.60
51383;DHT22;37475;43.358;1.248;2023-04-03T01:15:23;8.90;91.70
51383;DHT22;37475;43.358;1.248;2023-04-03T01:17:58;8.90;91.70
51383;DHT22;37475;43.358;1.248;2023-04-03T01:25:41;8.90;91.60
51383;DHT22;37475;43.358;1.248;2023-04-03T01:28:35;8.80;91.80
51383;DHT22;37475;43.358;1.248;2023-04-03T01:33:34;8.90;92.00
51383;DHT22;37475;43.358;1.248;2023-04-03T01:36:01;8.80;92.20
51383;DHT22;37475;43.358;1.248;2023-04-03T01:38:27;8.80;92.30
51383;DHT22;37475;43.358;1.248;2023-04-03T01:40:53;8.80;92.40
51383;DHT22;37475;43.358;1.248;2023-04-03T01:43:19;8.70;92.40
51383;DHT22;37475;43.358;1.248;2023-04-03T01:45:45;8.70;92.40
51383;DHT22;37475;43.358;1.248;2023-04-03T01:48:12;8.70;92.40
51383;DHT22;37475;43.358;1.248;2023-04-03T01:50:39;8.70;92.40
51383;DHT22;37475;43.358;1.248;2023-04-03T01:53:05;8.80;92.40
51383;DHT22;37475;43.358;1.248;2023-04-03T01:55:30;8.70;92.50
51383;DHT22;37475;43.358;1.248;2023-04-03T01:57:56;8.70;92.50
51383;DHT22;37475;43.358;1.248;2023-04-03T02:00:22;8.70;92.60
51383;DHT22;37475;43.358;1.248;2023-04-03T02:02:48;8.70;92.40
51383;DHT22;37475;43.358;1.248;2023-04-03T02:05:14;8.70;92.50
51383;DHT22;37475;43.358;1.248;2023-04-03T02:07:39;8.70;92.60
51383;DHT22;37475;43.358;1.248;2023-04-03T02:10:05;8.70;92.70
51383;DHT22;37475;43.358;1.248;2023-04-03T02:12:31;8.70;92.70
51383;DHT22;37475;43.358;1.248;2023-04-03T02:14:57;8.70;92.80
51383;DHT22;37475;43.358;1.248;2023-04-03T02:17:23;8.60;92.70
51383;DHT22;37475;43.358;1.248;2023-04-03T02:19:49;8.60;92.60
51383;DHT22;37475;43.358;1.248;2023-04-03T02:22:15;8.70;92.40
51383;DHT22;37475;43.358;1.248;2023-04-03T02:24:40;8.60;92.60
51383;DHT22;37475;43.358;1.248;2023-04-03T02:27:07;8.60;92.90
51383;DHT22;37475;43.358;1.248;2023-04-03T02:29:32;8.60;93.00
51383;DHT22;37475;43.358;1.248;2023-04-03T02:31:58;8.60;93.00
51383;DHT22;37475;43.358;1.248;2023-04-03T02:34:24;8.60;93.10
51383;DHT22;37475;43.358;1.248;2023-04-03T02:36:50;8.60;93.00
51383;DHT22;37475;43.358;1.248;2023-04-03T02:39:16;8.60;93.00
51383;DHT22;37475;43.358;1.248;2023-04-03T02:41:41;8.60;93.00
51383;DHT22;37475;43.358;1.248;2023-04-03T02:44:09;8.60;93.20
51383;DHT22;37475;43.358;1.248;2023-04-03T02:46:36;8.60;93.30
51383;DHT22;37475;43.358;1.248;2023-04-03T02:49:02;8.50;93.40
51383;DHT22;37475;43.358;1.248;2023-04-03T02:51:28;8.60;93.50
51383;DHT22;37475;43.358;1.248;2023-04-03T02:53:54;8.60;93.40
51383;DHT22;37475;43.358;1.248;2023-04-03T02:56:19;8.60;93.50
51383;DHT22;37475;43.358;1.248;2023-04-03T02:58:46;8.60;93.40
51383;DHT22;37475;43.358;1.248;2023-04-03T03:01:12;8.60;93.10
51383;DHT22;37475;43.358;1.248;2023-04-03T03:03:39;8.60;93.20
51383;DHT22;37475;43.358;1.248;2023-04-03T03:06:09;8.60;93.30
51383;DHT22;37475;43.358;1.248;2023-04-03T03:08:36;8.60;93.40
51383;DHT22;37475;43.358;1.248;2023-04-03T03:11:02;8.60;93.30
51383;DHT22;37475;43.358;1.248;2023-04-03T03:13:29;8.60;93.60
51383;DHT22;37475;43.358;1.248;2023-04-03T03:15:55;8.60;93.70
51383;DHT22;37475;43.358;1.248;2023-04-03T03:18:22;8.50;93.80
51383;DHT22;37475;43.358;1.248;2023-04-03T03:20:56;8.40;94.00
51383;DHT22;37475;43.358;1.248;2023-04-03T03:23:24;8.50;94.20
51383;DHT22;37475;43.358;1.248;2023-04-03T03:25:58;8.40;94.20
51383;DHT22;37475;43.358;1.248;2023-04-03T03:28:26;8.40;94.40
51383;DHT22;37475;43.358;1.248;2023-04-03T03:30:52;8.40;94.50
51383;DHT22;37475;43.358;1.248;2023-04-03T03:33:18;8.40;94.40
51383;DHT22;37475;43.358;1.248;2023-04-03T03:35:44;8.40;94.60
51383;DHT22;37475;43.358;1.248;2023-04-03T03:38:10;8.40;94.60
51383;DHT22;37475;43.358;1.248;2023-04-03T03:40:36;8.40;94.70
51383;DHT22;37475;43.358;1.248;2023-04-03T03:43:02;8.40;94.70
51383;DHT22;37475;43.358;1.248;2023-04-03T03:45:28;8.40;94.80
51383;DHT22;37475;43.358;1.248;2023-04-03T03:47:54;8.30;94.80
51383;DHT22;37475;43.358;1.248;2023-04-03T03:50:20;8.30;94.80
51383;DHT22;37475;43.358;1.248;2023-04-03T03:52:46;8.30;95.00
51383;DHT22;37475;43.358;1.248;2023-04-03T03:55:12;8.30;95.10
51383;DHT22;37475;43.358;1.248;2023-04-03T03:57:38;8.30;95.10
51383;DHT22;37475;43.358;1.248;2023-04-03T04:00:05;8.30;95.10
51383;DHT22;37475;43.358;1.248;2023-04-03T04:02:32;8.30;95.20
51383;DHT22;37475;43.358;1.248;2023-04-03T04:04:58;8.30;95.30
51383;DHT22;37475;43.358;1.248;2023-04-03T04:07:24;8.20;95.40
51383;DHT22;37475;43.358;1.248;2023-04-03T04:09:53;8.20;95.40
51383;DHT22;37475;43.358;1.248;2023-04-03T04:12:19;8.20;95.40
51383;DHT22;37475;43.358;1.248;2023-04-03T04:14:45;8.30;95.50
51383;DHT22;37475;43.358;1.248;2023-04-03T04:17:15;8.20;95.60
51383;DHT22;37475;43.358;1.248;2023-04-03T04:19:41;8.20;95.70
51383;DHT22;37475;43.358;1.248;2023-04-03T04:22:07;8.20;95.80
51383;DHT22;37475;43.358;1.248;2023-04-03T04:24:33;8.20;95.80
51383;DHT22;37475;43.358;1.248;2023-04-03T04:26:59;8.10;95.90
51383;DHT22;37475;43.358;1.248;2023-04-03T04:29:24;8.20;95.80
51383;DHT22;37475;43.358;1.248;2023-04-03T04:31:50;8.20;95.80
51383;DHT22;37475;43.358;1.248;2023-04-03T04:34:16;8.20;95.80
51383;DHT22;37475;43.358;1.248;2023-04-03T04:36:42;8.20;95.80
51383;DHT22;37475;43.358;1.248;2023-04-03T04:39:08;8.20;95.80
51383;DHT22;37475;43.358;1.248;2023-04-03T04:41:33;8.20;95.80
51383;DHT22;37475;43.358;1.248;2023-04-03T04:44:00;8.30;95.80
51383;DHT22;37475;43.358;1.248;2023-04-03T04:46:26;8.30;95.80
51383;DHT22;37475;43.358;1.248;2023-04-03T04:48:52;8.20;95.80
51383;DHT22;37475;43.358;1.248;2023-04-03T04:51:18;8.20;95.90
51383;DHT22;37475;43.358;1.248;2023-04-03T04:53:44;8.20;95.90
51383;DHT22;37475;43.358;1.248;2023-04-03T04:56:10;8.20;95.90
51383;DHT22;37475;43.358;1.248;2023-04-03T04:58:36;8.20;95.90
51383;DHT22;37475;43.358;1.248;2023-04-03T05:01:07;8.20;96.00
51383;DHT22;37475;43.358;1.248;2023-04-03T05:03:34;8.20;96.00
51383;DHT22;37475;43.358;1.248;2023-04-03T05:06:00;8.30;96.00
51383;DHT22;37475;43.358;1.248;2023-04-03T05:08:26;8.20;96.00
51383;DHT22;37475;43.358;1.248;2023-04-03T05:10:52;8.20;96.00
51383;DHT22;37475;43.358;1.248;2023-04-03T05:13:19;8.20;96.00
51383;DHT22;37475;43.358;1.248;2023-04-03T05:15:45;8.20;96.00
51383;DHT22;37475;43.358;1.248;2023-04-03T05:18:12;8.20;96.00
51383;DHT22;37475;43.358;1.248;2023-04-03T05:20:38;8.20;96.00
51383;DHT22;37475;43.358;1.248;2023-04-03T05:23:04;8.20;96.00
51383;DHT22;37475;43.358;1.248;2023-04-03T05:25:31;8.20;95.90
51383;DHT22;37475;43.358;1.248;2023-04-03T05:27:56;8.20;96.00
51383;DHT22;37475;43.358;1.248;2023-04-03T05:30:22;8.20;96.00
51383;DHT22;37475;43.358;1.248;2023-04-03T05:32:48;8.10;96.00
51383;DHT22;37475;43.358;1.248;2023-04-03T05:35:14;8.20;96.00
51383;DHT22;37475;43.358;1.248;2023-04-03T05:37:40;8.10;96.00
51383;DHT22;37475;43.358;1.248;2023-04-03T05:40:07;8.10;96.00
51383;DHT22;37475;43.358;1.248;2023-04-03T05:42:33;8.20;96.00
51383;DHT22;37475;43.358;1.248;2023-04-03T05:45:00;8.20;95.90
51383;DHT22;37475;43.358;1.248;2023-04-03T05:47:26;8.10;95.90
51383;DHT22;37475;43.358;1.248;2023-04-03T05:49:51;8.20;96.00
51383;DHT22;37475;43.358;1.248;2023-04-03T05:52:33;8.20;95.90
51383;DHT22;37475;43.358;1.248;2023-04-03T05:55:01;8.20;95.90
51383;DHT22;37475;43.358;1.248;2023-04-03T05:57:26;8.20;95.80
51383;DHT22;37475;43.358;1.248;2023-04-03T05:59:52;8.30;95.80
51383;DHT22;37475;43.358;1.248;2023-04-03T06:02:22;8.30;95.80
51383;DHT22;37475;43.358;1.248;2023-04-03T06:04:49;8.30;95.80
51383;DHT22;37475;43.358;1.248;2023-04-03T06:07:18;8.30;95.60
51383;DHT22;37475;43.358;1.248;2023-04-03T06:09:48;8.30;95.70
51383;DHT22;37475;43.358;1.248;2023-04-03T06:12:15;8.40;95.60
51383;DHT22;37475;43.358;1.248;2023-04-03T06:14:40;8.40;95.50
51383;DHT22;37475;43.358;1.248;2023-04-03T06:17:06;8.40;95.50
51383;DHT22;37475;43.358;1.248;2023-04-03T06:19:34;8.40;95.50
51383;DHT22;37475;43.358;1.248;2023-04-03T06:22:01;8.40;95.40
51383;DHT22;37475;43.358;1.248;2023-04-03T06:24:28;8.40;95.40
51383;DHT22;37475;43.358;1.248;2023-04-03T06:26:56;8.50;95.40
51383;DHT22;37475;43.358;1.248;2023-04-03T06:29:23;8.50;95.30
51383;DHT22;37475;43.358;1.248;2023-04-03T06:31:50;8.50;95.30
51383;DHT22;37475;43.358;1.248;2023-04-03T06:34:16;8.50;95.30
51383;DHT22;37475;43.358;1.248;2023-04-03T06:36:44;8.60;95.20
51383;DHT22;37475;43.358;1.248;2023-04-03T06:39:15;8.60;95.00
51383;DHT22;37475;43.358;1.248;2023-04-03T06:41:43;8.60;95.00
51383;DHT22;37475;43.358;1.248;2023-04-03T06:44:09;8.60;95.00
51383;DHT22;37475;43.358;1.248;2023-04-03T06:46:37;8.60;94.90
51383;DHT22;37475;43.358;1.248;2023-04-03T06:49:05;8.60;94.70
51383;DHT22;37475;43.358;1.248;2023-04-03T06:51:33;8.60;94.70
51383;DHT22;37475;43.358;1.248;2023-04-03T06:54:01;8.70;94.80
51383;DHT22;37475;43.358;1.248;2023-04-03T06:56:28;8.70;94.60
51383;DHT22;37475;43.358;1.248;2023-04-03T06:58:55;8.70;94.60
51383;DHT22;37475;43.358;1.248;2023-04-03T07:01:24;8.70;94.40
51383;DHT22;37475;43.358;1.248;2023-04-03T07:03:52;8.80;94.40
51383;DHT22;37475;43.358;1.248;2023-04-03T07:06:19;8.70;94.30
51383;DHT22;37475;43.358;1.248;2023-04-03T07:08:45;8.80;94.30
51383;DHT22;37475;43.358;1.248;2023-04-03T07:11:12;8.80;94.10
51383;DHT22;37475;43.358;1.248;2023-04-03T07:13:38;8.80;94.10
51383;DHT22;37475;43.358;1.248;2023-04-03T07:16:05;8.90;94.10
51383;DHT22;37475;43.358;1.248;2023-04-03T07:18:34;8.90;93.90
51383;DHT22;37475;43.358;1.248;2023-04-03T07:21:01;8.90;93.90
51383;DHT22;37475;43.358;1.248;2023-04-03T07:23:27;8.90;93.90
51383;DHT22;37475;43.358;1.248;2023-04-03T07:25:53;9.00;93.90
51383;DHT22;37475;43.358;1.248;2023-04-03T07:28:21;9.00;93.80
51383;DHT22;37475;43.358;1.248;2023-04-03T07:30:53;9.00;93.80
51383;DHT22;37475;43.358;1.248;2023-04-03T07:33:25;9.00;93.70
51383;DHT22;37475;43.358;1.248;2023-04-03T07:35:50;9.00;93.50
51383;DHT22;37475;43.358;1.248;2023-04-03T07:38:16;9.00;93.30
51383;DHT22;37475;43.358;1.248;2023-04-03T07:40:50;9.10;93.40
51383;DHT22;37475;43.358;1.248;2023-04-03T07:43:18;9.10;93.30
51383;DHT22;37475;43.358;1.248;2023-04-03T07:45:45;9.10;93.00
51383;DHT22;37475;43.358;1.248;2023-04-03T07:48:16;9.10;92.70
51383;DHT22;37475;43.358;1.248;2023-04-03T07:50:43;9.20;92.70
51383;DHT22;37475;43.358;1.248;2023-04-03T07:53:09;9.30;92.70
51383;DHT22;37475;43.358;1.248;2023-04-03T07:55:35;9.20;92.00
51383;DHT22;37475;43.358;1.248;2023-04-03T07:58:11;9.20;91.70
51383;DHT22;37475;43.358;1.248;2023-04-03T08:00:39;9.20;91.50
51383;DHT22;37475;43.358;1.248;2023-04-03T08:03:05;9.20;91.50
51383;DHT22;37475;43.358;1.248;2023-04-03T08:05:37;9.30;91.60
51383;DHT22;37475;43.358;1.248;2023-04-03T08:08:04;9.20;91.40
51383;DHT22;37475;43.358;1.248;2023-04-03T08:10:31;9.30;91.70
51383;DHT22;37475;43.358;1.248;2023-04-03T08:12:56;9.30;91.80
51383;DHT22;37475;43.358;1.248;2023-04-03T08:15:22;9.30;91.90
51383;DHT22;37475;43.358;1.248;2023-04-03T08:17:49;9.30;91.50
51383;DHT22;37475;43.358;1.248;2023-04-03T08:20:16;9.20;91.30
51383;DHT22;37475;43.358;1.248;2023-04-03T08:22:41;9.30;91.10
51383;DHT22;37475;43.358;1.248;2023-04-03T08:25:08;9.40;91.20
51383;DHT22;37475;43.358;1.248;2023-04-03T08:27:34;9.40;91.10
51383;DHT22;37475;43.358;1.248;2023-04-03T08:30:00;9.30;91.00
51383;DHT22;37475;43.358;1.248;2023-04-03T08:32:26;9.30;90.90
51383;DHT22;37475;43.358;1.248;2023-04-03T08:34:52;9.40;90.90
51383;DHT22;37475;43.358;1.248;2023-04-03T08:37:18;9.40;90.80
51383;DHT22;37475;43.358;1.248;2023-04-03T08:39:44;9.40;90.40
51383;DHT22;37475;43.358;1.248;2023-04-03T08:45:53;9.30;90.10
51383;DHT22;37475;43.358;1.248;2023-04-03T08:48:29;9.30;90.30
51383;DHT22;37475;43.358;1.248;2023-04-03T08:51:02;9.50;90.50
51383;DHT22;37475;43.358;1.248;2023-04-03T08:53:34;9.40;90.40
51383;DHT22;37475;43.358;1.248;2023-04-03T08:56:08;9.60;90.50
51383;DHT22;37475;43.358;1.248;2023-04-03T08:58:48;9.50;89.80
51383;DHT22;37475;43.358;1.248;2023-04-03T09:01:35;9.70;89.80
51383;DHT22;37475;43.358;1.248;2023-04-03T09:04:09;9.90;89.50
51383;DHT22;37475;43.358;1.248;2023-04-03T09:06:38;10.00;89.30
51383;DHT22;37475;43.358;1.248;2023-04-03T09:09:33;10.20;89.70
51383;DHT22;37475;43.358;1.248;2023-04-03T09:12:36;9.90;88.60
51383;DHT22;37475;43.358;1.248;2023-04-03T09:15:21;9.90;88.10
51383;DHT22;37475;43.358;1.248;2023-04-03T09:21:01;9.90;88.50
51383;DHT22;37475;43.358;1.248;2023-04-03T09:23:51;10.00;88.30
51383;DHT22;37475;43.358;1.248;2023-04-03T09:26:29;10.10;88.30
51383;DHT22;37475;43.358;1.248;2023-04-03T09:29:00;10.00;87.20
51383;DHT22;37475;43.358;1.248;2023-04-03T09:31:36;10.30;89.00
51383;DHT22;37475;43.358;1.248;2023-04-03T09:34:11;10.30;87.50
51383;DHT22;37475;43.358;1.248;2023-04-03T09:36:54;10.30;86.60
51383;DHT22;37475;43.358;1.248;2023-04-03T09:39:24;10.60;86.80
51383;DHT22;37475;43.358;1.248;2023-04-03T09:42:14;10.70;85.70
51383;DHT22;37475;43.358;1.248;2023-04-03T09:44:53;10.70;86.30
51383;DHT22;37475;43.358;1.248;2023-04-03T09:47:29;10.80;85.30
51383;DHT22;37475;43.358;1.248;2023-04-03T09:52:40;11.00;84.00
51383;DHT22;37475;43.358;1.248;2023-04-03T09:55:17;10.90;83.40
51383;DHT22;37475;43.358;1.248;2023-04-03T09:57:48;10.90;83.80
51383;DHT22;37475;43.358;1.248;2023-04-03T10:00:31;10.90;82.40
51383;DHT22;37475;43.358;1.248;2023-04-03T10:03:00;10.90;83.10
51383;DHT22;37475;43.358;1.248;2023-04-03T10:05:32;11.20;81.70
51383;DHT22;37475;43.358;1.248;2023-04-03T10:10:48;10.90;80.80
51383;DHT22;37475;43.358;1.248;2023-04-03T10:13:56;10.90;79.30
51383;DHT22;37475;43.358;1.248;2023-04-03T10:19:29;11.10;81.30
51383;DHT22;37475;43.358;1.248;2023-04-03T10:22:20;11.20;80.50
51383;DHT22;37475;43.358;1.248;2023-04-03T10:25:15;11.30;80.60
51383;DHT22;37475;43.358;1.248;2023-04-03T10:28:05;11.30;79.50
51383;DHT22;37475;43.358;1.248;2023-04-03T10:51:09;11.00;81.30
51383;DHT22;37475;43.358;1.248;2023-04-03T10:53:44;11.20;81.70
51383;DHT22;37475;43.358;1.248;2023-04-03T10:56:39;11.20;80.80
51383;DHT22;37475;43.358;1.248;2023-04-03T10:59:25;11.10;80.30
51383;DHT22;37475;43.358;1.248;2023-04-03T11:01:57;11.10;79.90
51383;DHT22;37475;43.358;1.248;2023-04-03T11:04:28;11.10;80.10
51383;DHT22;37475;43.358;1.248;2023-04-03T11:07:04;11.10;78.70
51383;DHT22;37475;43.358;1.248;2023-04-03T11:09:37;11.20;79.70
51383;DHT22;37475;43.358;1.248;2023-04-03T11:15:02;11.30;78.00
51383;DHT22;37475;43.358;1.248;2023-04-03T11:17:43;11.60;78.00
51383;DHT22;37475;43.358;1.248;2023-04-03T11:20:32;11.70;76.80
51383;DHT22;37475;43.358;1.248;2023-04-03T11:23:21;11.90;76.90
51383;DHT22;37475;43.358;1.248;2023-04-03T11:25:53;12.30;73.90
51383;DHT22;37475;43.358;1.248;2023-04-03T11:28:24;12.30;73.70
51383;DHT22;37475;43.358;1.248;2023-04-03T11:33:51;12.80;77.00
51383;DHT22;37475;43.358;1.248;2023-04-03T11:37:04;13.20;72.80
51383;DHT22;37475;43.358;1.248;2023-04-03T11:39:38;13.50;74.40
51383;DHT22;37475;43.358;1.248;2023-04-03T11:42:15;13.60;71.90
51383;DHT22;37475;43.358;1.248;2023-04-03T11:44:46;13.30;73.30
51383;DHT22;37475;43.358;1.248;2023-04-03T11:47:48;13.10;70.70
51383;DHT22;37475;43.358;1.248;2023-04-03T11:53:11;13.00;70.40
51383;DHT22;37475;43.358;1.248;2023-04-03T11:55:58;12.60;74.80
51383;DHT22;37475;43.358;1.248;2023-04-03T11:58:28;12.90;73.40
51383;DHT22;37475;43.358;1.248;2023-04-03T12:01:01;13.30;72.00
51383;DHT22;37475;43.358;1.248;2023-04-03T12:24:29;14.30;69.50
51383;DHT22;37475;43.358;1.248;2023-04-03T12:35:27;14.10;63.80
51383;DHT22;37475;43.358;1.248;2023-04-03T12:41:36;15.10;65.50
51383;DHT22;37475;43.358;1.248;2023-04-03T12:46:49;14.60;62.30
51383;DHT22;37475;43.358;1.248;2023-04-03T12:49:35;15.40;60.70
51383;DHT22;37475;43.358;1.248;2023-04-03T12:52:06;15.20;59.90
51383;DHT22;37475;43.358;1.248;2023-04-03T12:54:45;16.20;58.50
51383;DHT22;37475;43.358;1.248;2023-04-03T12:57:19;16.60;59.40
51383;DHT22;37475;43.358;1.248;2023-04-03T12:59:53;17.40;53.40
51383;DHT22;37475;43.358;1.248;2023-04-03T13:02:29;15.70;56.70
51383;DHT22;37475;43.358;1.248;2023-04-03T13:05:09;15.70;56.00
51383;DHT22;37475;43.358;1.248;2023-04-03T13:07:37;16.80;55.50
51383;DHT22;37475;43.358;1.248;2023-04-03T13:10:15;16.50;56.60
51383;DHT22;37475;43.358;1.248;2023-04-03T13:12:55;16.20;54.40
51383;DHT22;37475;43.358;1.248;2023-04-03T13:15:27;15.60;56.10
51383;DHT22;37475;43.358;1.248;2023-04-03T13:17:55;15.70;53.70
51383;DHT22;37475;43.358;1.248;2023-04-03T13:20:28;15.40;53.90
51383;DHT22;37475;43.358;1.248;2023-04-03T13:23:00;16.10;55.20
51383;DHT22;37475;43.358;1.248;2023-04-03T13:25:30;15.80;56.10
51383;DHT22;37475;43.358;1.248;2023-04-03T13:27:58;15.60;53.70
51383;DHT22;37475;43.358;1.248;2023-04-03T13:30:32;14.70;53.70
51383;DHT22;37475;43.358;1.248;2023-04-03T13:33:02;15.30;53.80
51383;DHT22;37475;43.358;1.248;2023-04-03T13:35:39;15.80;53.50
51383;DHT22;37475;43.358;1.248;2023-04-03T13:40:59;16.30;55.20
51383;DHT22;37475;43.358;1.248;2023-04-03T13:43:28;16.10;54.80
51383;DHT22;37475;43.358;1.248;2023-04-03T13:48:44;16.20;54.80
51383;DHT22;37475;43.358;1.248;2023-04-03T13:53:44;16.00;56.90
51383;DHT22;37475;43.358;1.248;2023-04-03T13:56:34;16.90;55.90
51383;DHT22;37475;43.358;1.248;2023-04-03T14:06:46;15.90;56.70
51383;DHT22;37475;43.358;1.248;2023-04-03T14:09:13;15.60;58.10
51383;DHT22;37475;43.358;1.248;2023-04-03T14:11:40;15.40;57.80
51383;DHT22;37475;43.358;1.248;2023-04-03T14:14:34;14.80;59.10
51383;DHT22;37475;43.358;1.248;2023-04-03T14:17:02;15.00;60.60
51383;DHT22;37475;43.358;1.248;2023-04-03T14:19:35;15.00;59.80
51383;DHT22;37475;43.358;1.248;2023-04-03T14:22:21;14.80;59.40
51383;DHT22;37475;43.358;1.248;2023-04-03T14:24:50;14.80;59.30
51383;DHT22;37475;43.358;1.248;2023-04-03T14:27:27;14.90;59.40
51383;DHT22;37475;43.358;1.248;2023-04-03T14:29:56;14.70;59.50
51383;DHT22;37475;43.358;1.248;2023-04-03T14:32:24;14.70;59.70
51383;DHT22;37475;43.358;1.248;2023-04-03T14:34:51;14.60;58.40
51383;DHT22;37475;43.358;1.248;2023-04-03T14:37:29;14.60;59.20
51383;DHT22;37475;43.358;1.248;2023-04-03T14:39:57;14.60;59.50
51383;DHT22;37475;43.358;1.248;2023-04-03T14:42:28;14.50;60.10
51383;DHT22;37475;43.358;1.248;2023-04-03T14:44:57;14.60;60.80
51383;DHT22;37475;43.358;1.248;2023-04-03T14:47:26;14.50;59.30
51383;DHT22;37475;43.358;1.248;2023-04-03T14:49:53;14.50;59.40
51383;DHT22;37475;43.358;1.248;2023-04-03T14:52:26;14.60;58.30
51383;DHT22;37475;43.358;1.248;2023-04-03T14:54:56;14.70;59.20
51383;DHT22;37475;43.358;1.248;2023-04-03T14:57:24;14.70;58.60
51383;DHT22;37475;43.358;1.248;2023-04-03T14:59:51;14.60;58.40
51383;DHT22;37475;43.358;1.248;2023-04-03T15:04:59;14.60;61.50
51383;DHT22;37475;43.358;1.248;2023-04-03T15:07:30;15.10;58.40
51383;DHT22;37475;43.358;1.248;2023-04-03T15:10:09;14.90;62.40
51383;DHT22;37475;43.358;1.248;2023-04-03T15:12:50;15.30;59.80
51383;DHT22;37475;43.358;1.248;2023-04-03T15:15:19;15.60;57.50
51383;DHT22;37475;43.358;1.248;2023-04-03T15:17:48;15.80;55.80
51383;DHT22;37475;43.358;1.248;2023-04-03T15:20:21;16.20;55.90
51383;DHT22;37475;43.358;1.248;2023-04-03T15:22:48;16.20;54.80
51383;DHT22;37475;43.358;1.248;2023-04-03T15:25:15;16.40;56.20
51383;DHT22;37475;43.358;1.248;2023-04-03T15:27:41;16.70;56.20
51383;DHT22;37475;43.358;1.248;2023-04-03T15:30:11;16.50;56.20
51383;DHT22;37475;43.358;1.248;2023-04-03T15:32:39;15.70;56.60
51383;DHT22;37475;43.358;1.248;2023-04-03T15:35:05;15.90;56.80
51383;DHT22;37475;43.358;1.248;2023-04-03T15:37:32;15.50;57.40
51383;DHT22;37475;43.358;1.248;2023-04-03T15:39:57;15.60;56.50
51383;DHT22;37475;43.358;1.248;2023-04-03T15:42:23;15.60;55.10
51383;DHT22;37475;43.358;1.248;2023-04-03T15:44:49;15.30;59.40
51383;DHT22;37475;43.358;1.248;2023-04-03T15:47:15;15.20;57.80
51383;DHT22;37475;43.358;1.248;2023-04-03T15:49:41;15.90;57.00
51383;DHT22;37475;43.358;1.248;2023-04-03T15:52:06;16.30;55.60
51383;DHT22;37475;43.358;1.248;2023-04-03T15:54:32;16.20;54.00
51383;DHT22;37475;43.358;1.248;2023-04-03T15:56:58;16.40;53.90
51383;DHT22;37475;43.358;1.248;2023-04-03T15:59:24;16.50;54.70
51383;DHT22;37475;43.358;1.248;2023-04-03T16:01:50;16.30;54.90
51383;DHT22;37475;43.358;1.248;2023-04-03T16:04:17;15.50;57.30
51383;DHT22;37475;43.358;1.248;2023-04-03T16:06:44;14.60;60.30
51383;DHT22;37475;43.358;1.248;2023-04-03T16:09:10;14.50;61.70
51383;DHT22;37475;43.358;1.248;2023-04-03T16:11:36;14.90;59.30
51383;DHT22;37475;43.358;1.248;2023-04-03T16:14:05;15.00;61.00
51383;DHT22;37475;43.358;1.248;2023-04-03T16:16:32;14.90;60.50
51383;DHT22;37475;43.358;1.248;2023-04-03T16:18:58;15.10;57.70
51383;DHT22;37475;43.358;1.248;2023-04-03T16:21:24;15.50;57.60
51383;DHT22;37475;43.358;1.248;2023-04-03T16:23:50;15.60;56.50
51383;DHT22;37475;43.358;1.248;2023-04-03T16:26:16;14.90;56.80
51383;DHT22;37475;43.358;1.248;2023-04-03T16:28:43;14.30;62.00
51383;DHT22;37475;43.358;1.248;2023-04-03T16:31:09;14.50;59.60
51383;DHT22;37475;43.358;1.248;2023-04-03T16:33:35;15.40;58.50
51383;DHT22;37475;43.358;1.248;2023-04-03T16:36:03;16.80;56.60
51383;DHT22;37475;43.358;1.248;2023-04-03T16:38:30;17.60;52.80
51383;DHT22;37475;43.358;1.248;2023-04-03T16:40:55;18.00;52.00
51383;DHT22;37475;43.358;1.248;2023-04-03T16:43:31;18.50;52.00
51383;DHT22;37475;43.358;1.248;2023-04-03T16:45:57;17.80;50.90
51383;DHT22;37475;43.358;1.248;2023-04-03T16:48:24;17.70;52.30
51383;DHT22;37475;43.358;1.248;2023-04-03T16:50:50;18.00;52.10
51383;DHT22;37475;43.358;1.248;2023-04-03T16:53:22;18.30;51.70
51383;DHT22;37475;43.358;1.248;2023-04-03T16:55:49;18.30;50.20
51383;DHT22;37475;43.358;1.248;2023-04-03T16:58:15;17.90;51.10
51383;DHT22;37475;43.358;1.248;2023-04-03T17:00:41;17.60;51.70
51383;DHT22;37475;43.358;1.248;2023-04-03T17:03:07;17.20;53.60
51383;DHT22;37475;43.358;1.248;2023-04-03T17:05:33;17.70;53.20
51383;DHT22;37475;43.358;1.248;2023-04-03T17:07:59;18.00;53.30
51383;DHT22;37475;43.358;1.248;2023-04-03T17:10:27;18.10;50.70
51383;DHT22;37475;43.358;1.248;2023-04-03T17:12:53;17.40;53.50
51383;DHT22;37475;43.358;1.248;2023-04-03T17:15:19;17.60;52.90
51383;DHT22;37475;43.358;1.248;2023-04-03T17:17:46;17.80;50.50
51383;DHT22;37475;43.358;1.248;2023-04-03T17:20:13;17.50;51.60
51383;DHT22;37475;43.358;1.248;2023-04-03T17:22:39;16.80;53.30
51383;DHT22;37475;43.358;1.248;2023-04-03T17:25:05;16.90;52.30
51383;DHT22;37475;43.358;1.248;2023-04-03T17:27:31;17.40;52.10
51383;DHT22;37475;43.358;1.248;2023-04-03T17:29:57;17.60;50.90
51383;DHT22;37475;43.358;1.248;2023-04-03T17:32:24;17.40;52.10
51383;DHT22;37475;43.358;1.248;2023-04-03T17:34:50;17.60;52.80
51383;DHT22;37475;43.358;1.248;2023-04-03T17:37:16;17.40;53.10
51383;DHT22;37475;43.358;1.248;2023-04-03T17:39:42;17.70;52.40
51383;DHT22;37475;43.358;1.248;2023-04-03T17:42:08;18.10;52.20